Time;durP1;ratioP1;P1;durP2;ratioP2;P2;SDS_P1;SDS_P2;PMS_P1;PMS_P2;Temp;Humidity;BMP_temperature;BMP_pressure;BME280_temperature;BME280_humidity;BME280_pressure;Samples;Min_cycle;Max_cycle;Signal;HPM_P1;HPM_P2
2023/12/28 00:00:08;;;;;;;4.80;1.50;;;;;;;6.04;87.48;100555.41;5070592;28;20250;-68
2023/12/28 00:02:34;;;;;;;0.60;0.60;;;;;;;5.90;87.76;100550.22;5071390;28;20235;-68
2023/12/28 00:05:03;;;;;;;0.60;0.60;;;;;;;5.74;87.48;100554.31;5072762;28;20637;-68
2023/12/28 00:07:29;;;;;;;0.70;0.70;;;;;;;5.67;88.27;100555.09;5071857;28;20684;-68
2023/12/28 00:09:55;;;;;;;4.93;0.77;;;;;;;5.70;88.69;100554.28;5072224;28;20210;-68
2023/12/28 00:12:23;;;;;;;0.50;0.50;;;;;;;5.75;88.19;100565.34;5071776;28;20200;-68
2023/12/28 00:14:49;;;;;;;0.63;0.63;;;;;;;5.56;88.13;100543.13;5071593;28;20726;-68
2023/12/28 00:17:16;;;;;;;0.80;0.80;;;;;;;5.68;88.27;100571.22;5072577;28;20196;-68
2023/12/28 00:19:43;;;;;;;0.60;0.60;;;;;;;5.68;88.78;100564.47;5072360;28;20558;-68
2023/12/28 00:22:11;;;;;;;1.10;0.73;;;;;;;5.75;88.62;100576.34;5073026;28;20249;-68
2023/12/28 00:24:37;;;;;;;0.80;0.80;;;;;;;5.79;88.61;100572.16;5073709;28;20196;-69
2023/12/28 00:27:04;;;;;;;0.67;0.67;;;;;;;5.67;89.98;100572.91;5071596;28;20216;-68
2023/12/28 00:29:32;;;;;;;0.73;0.73;;;;;;;5.59;90.87;100568.63;5072785;28;20221;-68
2023/12/28 00:31:59;;;;;;;0.90;0.90;;;;;;;5.64;91.26;100582.22;5070255;28;20199;-68
2023/12/28 00:34:26;;;;;;;1.00;1.00;;;;;;;5.70;91.33;100588.22;5070526;28;20188;-68
2023/12/28 00:36:53;;;;;;;0.70;0.70;;;;;;;5.70;91.51;100592.44;5070176;28;20277;-69
2023/12/28 00:39:21;;;;;;;0.80;0.80;;;;;;;5.79;91.33;100598.44;5070396;28;20634;-69
2023/12/28 00:41:47;;;;;;;0.73;0.73;;;;;;;5.75;91.14;100590.81;5069788;28;20669;-68
2023/12/28 00:44:14;;;;;;;0.77;0.77;;;;;;;5.73;90.63;100602.63;5072195;28;20192;-68
2023/12/28 00:46:41;;;;;;;0.70;0.70;;;;;;;5.66;90.43;100601.72;5071614;28;20204;-68
2023/12/28 00:49:08;;;;;;;1.03;1.03;;;;;;;5.63;90.42;100608.47;5070539;28;20297;-69
2023/12/28 00:51:35;;;;;;;1.97;0.83;;;;;;;5.69;90.19;100616.16;5071381;28;20303;-68
2023/12/28 00:54:01;;;;;;;2.30;1.80;;;;;;;5.71;90.11;100624.69;5072069;28;20687;-69
2023/12/28 00:56:29;;;;;;;0.67;0.67;;;;;;;5.65;89.50;100619.53;5071630;28;20214;-69
2023/12/28 00:58:56;;;;;;;0.90;0.90;;;;;;;5.52;89.38;100620.25;5071438;28;20204;-68
2023/12/28 01:01:23;;;;;;;9.10;1.07;;;;;;;5.52;89.88;100620.25;5071638;28;20249;-68
2023/12/28 01:03:50;;;;;;;0.73;0.73;;;;;;;5.56;90.09;100624.50;5072624;28;20235;-68
2023/12/28 01:06:16;;;;;;;0.70;0.70;;;;;;;5.60;89.97;100618.63;5071170;28;20200;-68
2023/12/28 01:08:43;;;;;;;1.27;1.27;;;;;;;5.65;89.99;100629.72;5071693;28;20780;-68
2023/12/28 01:11:11;;;;;;;0.70;0.70;;;;;;;5.68;89.59;100624.66;5071308;28;20281;-68
2023/12/28 01:13:40;;;;;;;0.70;0.70;;;;;;;5.72;89.67;100621.28;5071275;28;20200;-68
2023/12/28 01:16:07;;;;;;;0.73;0.73;;;;;;;5.74;89.57;100624.72;5071134;28;20204;-68
2023/12/28 01:18:33;;;;;;;0.70;0.70;;;;;;;5.75;89.64;100622.16;5071923;28;20203;-68
2023/12/28 01:21:00;;;;;;;0.77;0.77;;;;;;;5.75;89.47;100622.16;5073217;28;20204;-68
2023/12/28 01:23:27;;;;;;;1.43;0.70;;;;;;;5.79;89.28;100623.03;5072969;28;20200;-68
2023/12/28 01:25:56;;;;;;;0.80;0.80;;;;;;;5.80;89.40;100634.94;5074295;28;20203;-68
2023/12/28 01:28:22;;;;;;;1.00;1.00;;;;;;;5.84;88.86;100631.59;5069322;28;20215;-68
2023/12/28 01:30:50;;;;;;;0.97;0.83;;;;;;;5.73;89.23;100634.03;5070825;28;20204;-68
2023/12/28 01:33:17;;;;;;;0.70;0.70;;;;;;;5.72;89.34;100628.91;5070880;28;20282;-67
2023/12/28 01:35:44;;;;;;;1.10;1.10;;;;;;;5.69;89.56;100627.19;5070761;28;20557;-68
2023/12/28 01:38:11;;;;;;;0.93;0.93;;;;;;;5.66;89.81;100622.09;5070739;28;20660;-68
2023/12/28 01:40:37;;;;;;;0.80;0.80;;;;;;;5.68;89.59;100629.75;5071983;28;20192;-68
2023/12/28 01:43:04;;;;;;;0.50;0.50;;;;;;;5.69;89.73;100626.34;5072190;28;20196;-68
2023/12/28 01:45:31;;;;;;;0.70;0.70;;;;;;;5.69;89.35;100621.25;5072772;28;20211;-68
2023/12/28 01:48:00;;;;;;;1.00;1.00;;;;;;;5.59;89.72;100627.13;5070565;28;20226;-68
2023/12/28 01:50:28;;;;;;;0.60;0.60;;;;;;;5.58;90.28;100630.50;5070475;28;20196;-68
2023/12/28 01:52:56;;;;;;;0.80;0.80;;;;;;;5.58;90.69;100622.84;5070639;28;21432;-68
2023/12/28 01:55:23;;;;;;;0.80;0.80;;;;;;;5.54;90.58;100616.03;5070518;28;20200;-67
2023/12/28 01:57:50;;;;;;;1.20;0.73;;;;;;;5.50;90.10;100604.13;5070555;28;20192;-68
2023/12/28 02:00:17;;;;;;;4.43;0.90;;;;;;;5.53;90.23;100614.31;5069969;28;20200;-68
2023/12/28 02:02:45;;;;;;;1.00;1.00;;;;;;;5.53;90.44;100611.78;5070409;28;20695;-68
2023/12/28 02:05:13;;;;;;;1.13;1.13;;;;;;;5.54;90.14;100610.94;5070454;28;20249;-68
2023/12/28 02:07:40;;;;;;;1.50;1.40;;;;;;;5.46;89.75;100603.22;5070234;28;20219;-68
2023/12/28 02:10:08;;;;;;;0.80;0.80;;;;;;;5.46;89.78;100617.66;5070507;28;20634;-68
2023/12/28 02:12:35;;;;;;;1.60;0.73;;;;;;;5.44;89.37;100626.94;5070180;28;20192;-68
2023/12/28 02:15:02;;;;;;;0.60;0.60;;;;;;;5.35;89.74;100629.41;5070191;28;20207;-68
2023/12/28 02:17:34;;;;;;;0.70;0.70;;;;;;;5.26;90.21;100625.09;5073482;28;20250;-68
2023/12/28 02:20:05;;;;;;;0.80;0.80;;;;;;;5.28;90.88;100631.03;5070506;28;20204;-68
2023/12/28 02:22:35;;;;;;;0.80;0.80;;;;;;;5.25;90.62;100636.06;5070599;28;20278;-68
2023/12/28 02:25:08;;;;;;;0.70;0.70;;;;;;;5.23;91.35;100638.59;5069892;28;20238;-68
2023/12/28 02:27:37;;;;;;;0.50;0.50;;;;;;;5.21;90.96;100640.28;5070219;28;20761;-68
2023/12/28 02:30:05;;;;;;;0.80;0.80;;;;;;;5.19;91.03;100641.09;5070128;28;20227;-68
2023/12/28 02:33:03;;;;;;;0.60;0.60;;;;;;;5.17;91.21;100650.41;5070340;28;20224;-67
2023/12/28 02:35:33;;;;;;;0.97;0.97;;;;;;;5.14;91.51;100648.66;5066712;28;20250;-68
2023/12/28 02:38:03;;;;;;;1.13;1.13;;;;;;;4.79;91.86;100637.22;5072340;28;20196;-67
2023/12/28 02:40:37;;;;;;;0.70;0.70;;;;;;;4.81;91.65;100645.72;5073612;28;20191;-68
2023/12/28 02:43:04;;;;;;;0.60;0.60;;;;;;;4.64;91.79;100642.09;5068904;28;20236;-68
2023/12/28 02:45:31;;;;;;;0.60;0.60;;;;;;;4.65;91.85;100653.97;5070091;28;20192;-68
2023/12/28 02:47:57;;;;;;;0.60;0.60;;;;;;;4.66;91.79;100650.59;5071044;28;20757;-67
2023/12/28 02:50:24;;;;;;;0.57;0.57;;;;;;;4.68;92.18;100644.72;5069727;28;20196;-68
2023/12/28 02:52:51;;;;;;;0.67;0.67;;;;;;;4.67;91.76;100637.91;5072010;28;20224;-68
2023/12/28 02:55:18;;;;;;;0.90;0.90;;;;;;;4.75;91.43;100650.69;5071283;28;20212;-67
2023/12/28 02:57:46;;;;;;;0.50;0.50;;;;;;;4.77;91.76;100649.06;5073178;28;20691;-68
2023/12/28 03:00:13;;;;;;;0.60;0.60;;;;;;;4.79;91.17;100657.53;5068687;28;20242;-68
2023/12/28 03:02:40;;;;;;;0.77;0.77;;;;;;;4.81;91.01;100655.03;5069093;28;20668;-68
2023/12/28 03:05:07;;;;;;;0.57;0.57;;;;;;;4.83;90.28;100661.84;5068663;28;20200;-67
2023/12/28 03:07:35;;;;;;;0.60;0.60;;;;;;;4.83;90.08;100661.84;5068880;28;20204;-68
2023/12/28 03:10:02;;;;;;;0.60;0.60;;;;;;;4.56;89.68;100618.28;5068644;28;20204;-67
2023/12/28 03:12:29;;;;;;;0.70;0.70;;;;;;;4.75;89.83;100643.09;5070063;28;20294;-67
2023/12/28 03:14:58;;;;;;;0.53;0.53;;;;;;;4.81;89.78;100645.72;5069019;28;20204;-67
2023/12/28 03:17:24;;;;;;;0.60;0.60;;;;;;;4.82;89.40;100651.63;5070075;28;20238;-67
2023/12/28 03:19:51;;;;;;;0.63;0.63;;;;;;;4.83;89.63;100653.34;5068797;28;20656;-68
2023/12/28 03:22:18;;;;;;;0.67;0.67;;;;;;;4.81;89.50;100648.28;5068314;28;20196;-67
2023/12/28 03:24:44;;;;;;;0.70;0.70;;;;;;;4.82;89.89;100642.34;5068713;28;20200;-68
2023/12/28 03:27:11;;;;;;;0.73;0.73;;;;;;;4.82;90.03;100636.41;5069390;28;20257;-67
2023/12/28 03:29:38;;;;;;;0.70;0.70;;;;;;;4.78;90.02;100639.75;5071972;28;20785;-67
2023/12/28 03:32:07;;;;;;;0.77;0.77;;;;;;;4.76;89.94;100634.63;5072146;28;20261;-68
2023/12/28 03:34:34;;;;;;;0.60;0.60;;;;;;;4.77;90.19;100638.88;5071794;28;20203;-68
2023/12/28 03:37:00;;;;;;;0.70;0.70;;;;;;;4.76;89.84;100637.19;5075850;28;20316;-67
2023/12/28 03:39:27;;;;;;;0.60;0.60;;;;;;;4.75;90.33;100640.53;5072071;28;20189;-67
2023/12/28 03:41:54;;;;;;;0.87;0.87;;;;;;;4.74;90.46;100646.47;5072191;28;20307;-67
2023/12/28 03:44:21;;;;;;;0.53;0.53;;;;;;;4.73;90.06;100639.69;5071715;28;20573;-67
2023/12/28 03:46:49;;;;;;;0.60;0.60;;;;;;;4.50;90.30;100615.66;5072563;28;20228;-68
2023/12/28 03:49:18;;;;;;;1.03;1.03;;;;;;;4.68;90.34;100641.31;5071703;28;20216;-67
2023/12/28 03:51:45;;;;;;;0.60;0.60;;;;;;;4.63;91.01;100635.31;5032064;28;1150389;-67
2023/12/28 03:54:12;;;;;;;0.70;0.70;;;;;;;4.50;91.04;100628.34;5073555;28;20329;-68
2023/12/28 03:56:39;;;;;;;0.63;0.63;;;;;;;4.57;91.56;100635.22;5071288;28;20226;-67
2023/12/28 03:59:06;;;;;;;0.60;0.60;;;;;;;4.58;91.34;100632.72;5072783;28;20273;-68
2023/12/28 04:01:33;;;;;;;0.93;0.90;;;;;;;4.57;91.32;100631.00;5072447;28;20268;-67
2023/12/28 04:04:00;;;;;;;0.80;0.80;;;;;;;4.58;91.28;100634.41;5072407;28;20672;-68
2023/12/28 04:06:28;;;;;;;0.50;0.50;;;;;;;4.57;91.05;100650.47;5072755;28;20680;-68
2023/12/28 04:08:55;;;;;;;1.00;1.00;;;;;;;4.45;91.00;100635.94;5073235;28;20687;-68
2023/12/28 04:11:22;;;;;;;0.97;0.97;;;;;;;4.51;91.22;100656.31;5072618;28;20196;-67
2023/12/28 04:13:48;;;;;;;0.73;0.73;;;;;;;4.50;91.30;100658.81;5073470;28;20196;-67
2023/12/28 04:16:15;;;;;;;0.70;0.70;;;;;;;4.50;90.55;100651.19;5073745;28;20257;-68
2023/12/28 04:18:41;;;;;;;0.70;0.70;;;;;;;4.46;90.68;100652.84;5072085;28;20254;-67
2023/12/28 04:21:09;;;;;;;1.17;1.17;;;;;;;4.40;90.93;100651.91;5072286;28;20192;-68
2023/12/28 04:23:39;;;;;;;0.83;0.83;;;;;;;4.19;90.64;100627.94;5074551;28;20224;-68
2023/12/28 04:26:06;;;;;;;0.70;0.70;;;;;;;4.28;90.89;100656.81;5072094;28;20192;-68
2023/12/28 04:28:34;;;;;;;0.60;0.60;;;;;;;4.23;91.27;100660.13;5072404;28;20220;-68
2023/12/28 04:31:03;;;;;;;1.00;1.00;;;;;;;4.20;91.11;100662.59;5072841;28;20200;-68
2023/12/28 04:33:30;;;;;;;1.10;0.60;;;;;;;4.05;91.91;100659.84;5073352;28;20196;-68
2023/12/28 04:35:56;;;;;;;1.07;1.07;;;;;;;4.00;92.45;100676.69;5071806;28;20631;-68
2023/12/28 04:38:23;;;;;;;0.80;0.80;;;;;;;3.99;92.76;100664.81;5071777;28;20196;-67
2023/12/28 04:40:50;;;;;;;0.80;0.80;;;;;;;3.89;92.55;100655.34;5071514;28;20203;-67
2023/12/28 04:43:17;;;;;;;0.60;0.60;;;;;;;3.88;92.79;100661.22;5071874;28;20200;-68
2023/12/28 04:45:43;;;;;;;0.67;0.67;;;;;;;3.88;93.25;100673.91;5071811;28;20200;-68
2023/12/28 04:48:10;;;;;;;0.70;0.70;;;;;;;3.87;93.37;100669.69;5071944;28;20196;-67
2023/12/28 04:50:37;;;;;;;0.50;0.50;;;;;;;3.89;93.83;100672.25;5074521;28;20195;-68
2023/12/28 04:53:04;;;;;;;0.50;0.50;;;;;;;3.85;93.39;100648.50;5071181;28;20232;-67
2023/12/28 04:55:31;;;;;;;0.60;0.60;;;;;;;3.92;93.60;100673.16;5071819;28;20192;-68
2023/12/28 04:57:59;;;;;;;0.87;0.87;;;;;;;3.83;93.54;100636.63;5070845;28;20687;-67
2023/12/28 05:00:25;;;;;;;0.60;0.60;;;;;;;3.96;93.54;100664.78;5071767;28;20664;-68
2023/12/28 05:02:52;;;;;;;0.70;0.70;;;;;;;3.97;93.13;100660.56;5071470;28;20195;-68
2023/12/28 05:05:19;;;;;;;0.70;0.70;;;;;;;3.86;93.24;100636.69;5068129;28;20265;-68
2023/12/28 05:07:45;;;;;;;0.50;0.50;;;;;;;3.96;92.90;100654.63;5072065;28;20207;-68
2023/12/28 05:10:12;;;;;;;0.60;0.60;;;;;;;3.96;93.02;100652.09;5071188;28;20228;-67
2023/12/28 05:12:39;;;;;;;0.73;0.73;;;;;;;3.93;93.00;100654.56;5067433;28;20196;-68
2023/12/28 05:15:08;;;;;;;0.83;0.83;;;;;;;3.94;92.44;100666.41;5071206;28;20734;-66
2023/12/28 05:17:34;;;;;;;1.10;1.00;;;;;;;3.90;92.39;100664.66;5070977;28;20195;-68
2023/12/28 05:20:01;;;;;;;0.60;0.60;;;;;;;3.92;92.66;100665.53;5071392;28;20661;-68
2023/12/28 05:22:28;;;;;;;0.60;0.60;;;;;;;3.81;92.05;100659.44;5071250;28;20215;-68
2023/12/28 05:24:54;;;;;;;0.60;0.60;;;;;;;3.75;92.25;100669.47;5072819;28;20196;-68
2023/12/28 05:27:21;;;;;;;0.63;0.63;;;;;;;3.71;92.73;100675.34;5070718;28;20220;-68
2023/12/28 05:29:48;;;;;;;0.87;0.87;;;;;;;3.67;93.19;100668.50;5074578;28;20216;-68
2023/12/28 05:32:16;;;;;;;0.50;0.50;;;;;;;3.71;93.17;100677.88;5070792;28;20734;-68
2023/12/28 05:34:43;;;;;;;0.70;0.70;;;;;;;3.67;93.11;100664.28;5070754;28;20200;-68
2023/12/28 05:37:10;;;;;;;0.80;0.80;;;;;;;3.69;93.21;100672.75;5070761;28;20618;-68
2023/12/28 05:39:36;;;;;;;0.70;0.70;;;;;;;3.67;92.75;100676.09;5069437;28;20192;-68
2023/12/28 05:42:03;;;;;;;0.60;0.60;;;;;;;3.62;93.03;100672.59;5068494;28;20266;-68
2023/12/28 05:44:30;;;;;;;0.60;0.60;;;;;;;3.56;93.12;100672.50;5070262;28;20208;-68
2023/12/28 05:46:57;;;;;;;1.10;1.10;;;;;;;3.50;93.63;100670.72;5072069;28;20192;-68
2023/12/28 05:49:25;;;;;;;0.50;0.50;;;;;;;3.35;93.43;100650.16;5070400;28;20216;-68
2023/12/28 05:51:52;;;;;;;1.23;1.23;;;;;;;3.41;93.83;100662.94;5071201;28;20285;-67
2023/12/28 05:54:19;;;;;;;0.50;0.50;;;;;;;3.39;94.21;100663.75;5070426;28;20258;-68
2023/12/28 05:56:46;;;;;;;1.87;1.77;;;;;;;3.41;94.28;100667.16;5070370;28;20257;-68
2023/12/28 05:59:12;;;;;;;0.60;0.60;;;;;;;3.30;94.62;100661.88;5069283;28;20188;-68
2023/12/28 06:01:43;;;;;;;0.97;0.97;;;;;;;3.37;94.58;100663.72;5070455;28;20200;-68
2023/12/28 06:04:10;;;;;;;0.60;0.60;;;;;;;3.39;94.53;100666.28;5070879;28;20615;-68
2023/12/28 06:06:38;;;;;;;0.63;0.63;;;;;;;3.37;94.59;100670.44;5070545;28;20196;-67
2023/12/28 06:09:05;;;;;;;1.13;1.13;;;;;;;3.28;94.63;100665.22;5070022;28;20756;-68
2023/12/28 06:11:31;;;;;;;1.27;1.27;;;;;;;3.32;94.74;100672.06;5070504;28;20250;-67
2023/12/28 06:13:58;;;;;;;0.63;0.63;;;;;;;3.30;94.86;100673.69;5070137;28;20281;-67
2023/12/28 06:16:25;;;;;;;0.70;0.70;;;;;;;3.29;95.13;100669.47;5068788;28;20200;-68
2023/12/28 06:18:52;;;;;;;0.63;0.63;;;;;;;3.33;95.09;100678.84;5072103;28;20275;-68
2023/12/28 06:21:18;;;;;;;0.60;0.60;;;;;;;3.32;95.18;100684.72;5070606;28;20192;-68
2023/12/28 06:23:46;;;;;;;0.60;0.60;;;;;;;3.38;96.49;100690.78;5068704;28;20191;-68
2023/12/28 06:26:13;;;;;;;0.60;0.60;;;;;;;3.46;97.12;100686.69;5070355;28;20598;-68
2023/12/28 06:28:40;;;;;;;0.80;0.80;;;;;;;3.38;96.58;100678.09;5070090;28;20739;-68
2023/12/28 06:31:07;;;;;;;0.50;0.50;;;;;;;3.36;96.78;100678.91;5070232;28;20269;-67
2023/12/28 06:33:34;;;;;;;0.80;0.80;;;;;;;3.42;96.38;100691.69;5067816;28;20207;-68
2023/12/28 06:36:06;;;;;;;0.77;0.77;;;;;;;3.44;96.22;100687.50;5069303;28;20576;-68
2023/12/28 06:38:33;;;;;;;0.60;0.60;;;;;;;3.40;96.72;100691.63;5063736;28;20257;-68
2023/12/28 06:41:01;;;;;;;0.70;0.70;;;;;;;3.35;96.92;100693.25;5065037;28;20223;-68
2023/12/28 06:43:27;;;;;;;0.90;0.90;;;;;;;3.37;97.05;100700.88;5066617;28;20250;-67
2023/12/28 06:45:55;;;;;;;0.70;0.70;;;;;;;3.36;96.97;100699.19;5067820;28;20283;-68
2023/12/28 06:48:21;;;;;;;0.60;0.60;;;;;;;3.36;97.11;100694.94;5066593;28;20196;-66
2023/12/28 06:50:48;;;;;;;0.60;0.60;;;;;;;3.37;97.17;100705.94;5068821;28;20583;-68
2023/12/28 06:53:15;;;;;;;0.73;0.73;;;;;;;3.35;97.42;100692.38;5067352;28;20281;-68
2023/12/28 06:55:42;;;;;;;0.60;0.60;;;;;;;3.46;97.47;100708.63;5067255;28;20215;-68
2023/12/28 06:58:10;;;;;;;0.63;0.63;;;;;;;3.49;97.51;100701.94;5067465;28;20208;-68
2023/12/28 07:00:36;;;;;;;0.60;0.60;;;;;;;3.55;97.47;100701.22;5066269;28;20246;-67
2023/12/28 07:03:04;;;;;;;0.73;0.73;;;;;;;3.57;97.43;100704.63;5070019;28;20254;-68
2023/12/28 07:05:31;;;;;;;0.80;0.80;;;;;;;3.58;97.55;100704.69;5075212;28;20196;-68
2023/12/28 07:07:58;;;;;;;0.60;0.60;;;;;;;3.59;97.42;100706.38;5069049;28;20204;-68
2023/12/28 07:10:25;;;;;;;0.60;0.60;;;;;;;3.63;97.61;100707.28;5069383;28;20687;-67
2023/12/28 07:12:51;;;;;;;0.60;0.60;;;;;;;3.66;97.99;100699.72;5071447;28;20204;-67
2023/12/28 07:15:19;;;;;;;0.87;0.87;;;;;;;3.70;98.21;100696.44;5072282;28;20253;-68
2023/12/28 07:17:46;;;;;;;0.70;0.70;;;;;;;3.73;98.41;100699.03;5074495;28;20256;-68
2023/12/28 07:20:13;;;;;;;0.83;0.83;;;;;;;3.75;98.82;100701.59;5070158;28;20260;-68
2023/12/28 07:22:40;;;;;;;1.00;1.00;;;;;;;3.79;99.00;100701.66;5070656;28;20200;-68
2023/12/28 07:25:07;;;;;;;0.60;0.60;;;;;;;3.84;99.34;100710.22;5072487;28;20200;-68
2023/12/28 07:27:35;;;;;;;0.70;0.70;;;;;;;3.80;99.48;100702.53;5074465;28;20660;-68
2023/12/28 07:30:01;;;;;;;1.40;1.40;;;;;;;3.90;99.95;100709.47;5072783;28;20274;-68
2023/12/28 07:32:30;;;;;;;0.97;0.97;;;;;;;3.93;99.89;100705.31;5072185;28;20208;-68
2023/12/28 07:34:58;;;;;;;1.03;1.03;;;;;;;3.97;100.00;100711.28;5070909;28;20560;-68
2023/12/28 07:37:25;;;;;;;0.80;0.80;;;;;;;4.00;100.00;100711.34;5071700;28;20208;-68
2023/12/28 07:39:52;;;;;;;1.07;1.07;;;;;;;4.02;100.00;100710.53;5071204;28;20622;-68
2023/12/28 07:42:18;;;;;;;0.60;0.60;;;;;;;4.07;100.00;100703.00;5071349;28;20668;-67
2023/12/28 07:44:45;;;;;;;0.80;0.80;;;;;;;4.10;100.00;100714.03;5071012;28;20204;-68
2023/12/28 07:47:12;;;;;;;1.23;1.00;;;;;;;4.14;100.00;100714.94;5071106;28;20207;-68
2023/12/28 07:49:40;;;;;;;1.33;1.03;;;;;;;4.17;100.00;100710.78;5067491;28;20311;-68
2023/12/28 07:52:07;;;;;;;0.80;0.80;;;;;;;4.25;100.00;100710.91;5069972;28;20235;-68
2023/12/28 07:54:33;;;;;;;0.70;0.70;;;;;;;4.32;100.00;100714.41;5070367;28;20196;-68
2023/12/28 07:57:00;;;;;;;0.90;0.90;;;;;;;4.32;100.00;100711.88;5069332;28;20204;-68
2023/12/28 07:59:27;;;;;;;0.70;0.70;;;;;;;4.49;100.00;100710.47;5070709;28;20290;-69
2023/12/28 08:01:54;;;;;;;1.63;1.33;;;;;;;4.58;100.00;100708.06;5071893;28;20212;-69
2023/12/28 08:04:21;;;;;;;0.90;0.90;;;;;;;4.63;100.00;100706.41;5071092;28;20245;-69
2023/12/28 08:06:49;;;;;;;1.93;1.20;;;;;;;4.74;100.00;100715.91;5073599;28;20261;-68
2023/12/28 08:09:15;;;;;;;1.17;1.17;;;;;;;4.81;100.00;100719.41;5070025;28;20638;-69
2023/12/28 08:11:42;;;;;;;0.80;0.80;;;;;;;4.94;100.00;100718.75;5071351;28;20203;-69
2023/12/28 08:14:09;;;;;;;1.00;1.00;;;;;;;5.02;100.00;100716.28;5070838;28;20300;-68
2023/12/28 08:16:36;;;;;;;1.20;1.20;;;;;;;5.16;100.00;100723.25;5071675;28;20691;-69
2023/12/28 08:19:03;;;;;;;1.30;1.30;;;;;;;5.23;100.00;100725.03;5071570;28;20200;-70
2023/12/28 08:21:29;;;;;;;1.37;1.37;;;;;;;5.39;100.00;100725.22;5071807;28;20207;-70
2023/12/28 08:23:58;;;;;;;1.23;1.13;;;;;;;5.49;100.00;100716.88;5071042;28;20208;-69
2023/12/28 08:26:24;;;;;;;0.87;0.87;;;;;;;5.61;100.00;100719.56;5069697;28;20945;-70
2023/12/28 08:28:51;;;;;;;1.47;1.17;;;;;;;5.73;100.00;100723.06;5069698;28;20208;-70
2023/12/28 08:31:19;;;;;;;1.03;1.03;;;;;;;5.83;100.00;100718.94;5071849;28;20223;-70
2023/12/28 08:33:45;;;;;;;1.77;1.67;;;;;;;5.95;100.00;100724.16;5070763;28;20579;-70
2023/12/28 08:36:13;;;;;;;1.37;1.07;;;;;;;6.13;100.00;100713.31;5068051;28;20265;-70
2023/12/28 08:38:39;;;;;;;1.60;1.50;;;;;;;6.25;100.00;100710.88;5071044;28;21696;-70
2023/12/28 08:41:08;;;;;;;2.00;1.53;;;;;;;6.37;100.00;100710.09;5068168;28;20250;-71
2023/12/28 08:43:36;;;;;;;1.53;1.17;;;;;;;6.47;100.00;100706.78;5068502;28;20208;-70
2023/12/28 08:46:03;;;;;;;3.03;2.87;;;;;;;6.62;100.00;100699.25;5073319;28;20227;-70
2023/12/28 08:48:29;;;;;;;1.40;1.40;;;;;;;6.75;100.00;100703.59;5071226;28;20257;-70
2023/12/28 08:50:56;;;;;;;1.20;1.20;;;;;;;6.88;100.00;100692.63;5067893;28;20673;-70
2023/12/28 08:53:23;;;;;;;2.47;1.77;;;;;;;7.02;100.00;100690.97;5070988;28;20208;-70
2023/12/28 08:55:49;;;;;;;1.47;1.37;;;;;;;7.16;100.00;100681.72;5070412;28;20253;-70
2023/12/28 08:58:18;;;;;;;3.57;1.57;;;;;;;7.29;100.00;100680.91;5072270;28;20196;-70
2023/12/28 09:00:45;;;;;;;1.23;1.13;;;;;;;7.46;99.40;100677.56;5070170;28;20680;-71
2023/12/28 09:03:12;;;;;;;2.00;1.67;;;;;;;7.57;99.00;100675.88;5070877;28;20200;-71
2023/12/28 09:05:38;;;;;;;1.87;1.77;;;;;;;7.74;97.79;100671.66;5064924;28;20200;-73
2023/12/28 09:08:06;;;;;;;2.47;2.33;;;;;;;7.93;97.72;100668.28;5068342;28;20213;-73
2023/12/28 09:10:33;;;;;;;1.70;1.60;;;;;;;8.05;97.40;100668.28;5069143;28;20220;-73
2023/12/28 09:12:59;;;;;;;2.03;1.37;;;;;;;8.18;96.58;100659.75;5069866;28;20211;-73
2023/12/28 09:15:28;;;;;;;1.50;1.40;;;;;;;8.32;96.83;100660.66;5071563;28;20200;-75
2023/12/28 09:17:54;;;;;;;1.40;1.40;;;;;;;8.50;97.40;100667.41;5071401;28;20219;-70
2023/12/28 09:20:21;;;;;;;1.73;1.73;;;;;;;8.64;96.43;100659.72;5068917;28;20199;-70
2023/12/28 09:22:53;;;;;;;2.37;1.80;;;;;;;8.80;95.27;100656.28;5069375;28;20208;-70
2023/12/28 09:25:20;;;;;;;1.37;1.37;;;;;;;8.97;93.29;100654.53;5068728;28;20288;-70
2023/12/28 09:27:46;;;;;;;2.03;1.73;;;;;;;9.04;92.27;100651.09;5069521;28;20261;-67
2023/12/28 09:30:13;;;;;;;1.83;1.73;;;;;;;9.10;92.02;100630.59;5067960;28;20288;-70
2023/12/28 09:32:41;;;;;;;1.77;1.47;;;;;;;9.30;91.29;100641.59;5070522;28;20253;-70
2023/12/28 09:35:08;;;;;;;1.07;1.07;;;;;;;9.54;89.54;100626.94;5069689;28;20204;-69
2023/12/28 09:37:36;;;;;;;0.97;0.97;;;;;;;9.70;88.31;100620.84;5069719;28;20688;-70
2023/12/28 09:40:03;;;;;;;1.37;1.37;;;;;;;9.79;88.54;100608.00;5070170;28;20199;-70
2023/12/28 09:42:36;;;;;;;9.30;1.67;;;;;;;9.96;89.90;100598.44;5071578;28;20200;-71
2023/12/28 09:45:04;;;;;;;1.93;1.83;;;;;;;10.04;88.77;100594.13;5070557;28;20253;-70
2023/12/28 09:47:33;;;;;;;2.87;2.50;;;;;;;10.12;86.37;100592.31;5070269;28;20196;-70
2023/12/28 09:50:01;;;;;;;3.23;1.87;;;;;;;10.20;86.67;100576.91;5069817;28;20257;-70
2023/12/28 09:52:27;;;;;;;1.13;1.13;;;;;;;10.31;86.17;100578.50;5070062;28;20224;-70
2023/12/28 09:54:54;;;;;;;1.07;1.07;;;;;;;10.41;86.33;100572.41;5070139;28;20506;-70
2023/12/28 09:57:21;;;;;;;1.30;1.30;;;;;;;10.53;85.15;100563.75;5070763;28;20211;-70
2023/12/28 09:59:48;;;;;;;2.13;2.03;;;;;;;10.69;85.76;100557.56;5069621;28;20200;-70
2023/12/28 10:02:15;;;;;;;1.77;1.67;;;;;;;10.77;84.01;100563.44;5075376;28;20364;-69
2023/12/28 10:04:42;;;;;;;2.13;2.00;;;;;;;10.82;83.42;100568.53;5070816;28;20200;-70
2023/12/28 10:07:10;;;;;;;1.20;1.10;;;;;;;10.88;82.40;100553.91;5069739;28;20212;-70
2023/12/28 10:09:37;;;;;;;1.60;1.50;;;;;;;11.00;82.51;100555.44;5069809;28;20249;-70
2023/12/28 10:12:04;;;;;;;1.43;1.20;;;;;;;11.17;82.97;100553.50;5071051;28;20215;-70
2023/12/28 10:14:31;;;;;;;1.40;1.13;;;;;;;11.26;81.68;100543.09;5069838;28;20305;-70
2023/12/28 10:16:58;;;;;;;1.23;1.17;;;;;;;11.27;80.26;100543.97;5070139;28;20196;-70
2023/12/28 10:19:25;;;;;;;1.00;1.00;;;;;;;11.36;78.65;100534.41;5069661;28;20219;-70
2023/12/28 10:21:52;;;;;;;1.37;1.27;;;;;;;11.39;77.18;100534.34;5069378;28;20211;-70
2023/12/28 10:24:21;;;;;;;2.20;1.63;;;;;;;11.45;77.16;100531.69;5071282;28;20229;-69
2023/12/28 10:26:47;;;;;;;1.97;1.87;;;;;;;11.49;78.29;100522.22;5072091;28;20707;-70
2023/12/28 10:29:14;;;;;;;1.90;1.80;;;;;;;11.51;79.17;100523.03;5072460;28;20196;-69
2023/12/28 10:31:43;;;;;;;1.03;1.03;;;;;;;11.59;78.46;100521.19;5069390;28;20215;-69
2023/12/28 10:34:10;;;;;;;1.70;1.27;;;;;;;11.69;79.39;100517.59;5069379;28;20695;-70
2023/12/28 10:36:39;;;;;;;2.63;2.20;;;;;;;11.70;77.40;100508.16;5069457;28;20249;-69
2023/12/28 10:39:08;;;;;;;1.20;1.20;;;;;;;11.71;77.59;100515.03;5073531;28;20207;-70
2023/12/28 10:41:37;;;;;;;1.80;1.70;;;;;;;11.75;76.78;100511.53;5071365;28;20207;-70
2023/12/28 10:44:06;;;;;;;1.23;1.23;;;;;;;11.80;76.72;100504.59;5071483;28;20258;-70
2023/12/28 10:46:38;;;;;;;2.03;1.93;;;;;;;11.91;76.51;100512.97;5073218;28;20207;-70
2023/12/28 10:49:10;;;;;;;1.37;0.93;;;;;;;11.89;74.20;100495.00;5072133;28;20208;-70
2023/12/28 10:51:37;;;;;;;1.40;0.97;;;;;;;11.93;71.89;100500.94;5069251;28;20281;-69
2023/12/28 10:54:17;;;;;;;0.63;0.63;;;;;;;11.97;70.85;100500.00;5076144;28;20200;-69
2023/12/28 10:56:48;;;;;;;1.00;1.00;;;;;;;12.01;69.07;100493.94;5070784;28;20261;-68
2023/12/28 10:59:21;;;;;;;1.83;1.77;;;;;;;12.12;70.89;100486.84;5073848;28;20560;-69
2023/12/28 11:01:52;;;;;;;0.93;0.93;;;;;;;12.00;71.62;100457.09;5070682;28;20196;-69
2023/12/28 11:04:25;;;;;;;0.87;0.87;;;;;;;12.16;72.26;100473.06;5075072;28;20248;-69
2023/12/28 11:06:53;;;;;;;1.03;1.03;;;;;;;12.24;72.45;100471.22;5072722;28;20751;-68
2023/12/28 11:09:21;;;;;;;1.00;1.00;;;;;;;12.29;71.14;100464.25;5074714;28;20258;-69
2023/12/28 11:11:52;;;;;;;1.80;1.13;;;;;;;12.34;70.26;100462.41;5071399;28;20280;-69
2023/12/28 11:14:19;;;;;;;0.90;0.90;;;;;;;12.05;70.77;100403.06;5072295;28;20277;-69
2023/12/28 11:16:46;;;;;;;1.27;1.27;;;;;;;12.43;70.30;100457.09;5073433;28;20585;-69
2023/12/28 11:19:13;;;;;;;0.97;0.97;;;;;;;12.40;69.68;100452.03;5070934;28;20209;-69
2023/12/28 11:21:41;;;;;;;2.73;1.03;;;;;;;12.47;69.29;100442.47;5068194;28;20201;-69
2023/12/28 11:24:08;;;;;;;1.50;1.50;;;;;;;12.49;69.65;100436.41;5072439;28;20207;-69
2023/12/28 11:26:35;;;;;;;1.30;1.20;;;;;;;12.45;69.53;100434.75;5069514;28;20204;-68
2023/12/28 11:29:03;;;;;;;2.00;1.57;;;;;;;12.55;70.06;100428.53;5071348;28;20766;-69
2023/12/28 11:31:34;;;;;;;1.70;1.60;;;;;;;12.66;69.08;100428.31;5072231;28;20691;-69